sensor_id;sensor_type;location;lat;lon;timestamp;P1;durP1;ratioP1;P2;durP2;ratioP2
33644;SDS011;19986;48.190;16.366;2023-04-09T00:00:38;61.25;;;57.05;;
33644;SDS011;19986;48.190;16.366;2023-04-09T00:03:04;61.83;;;57.72;;
33644;SDS011;19986;48.190;16.366;2023-04-09T00:05:30;61.15;;;57.08;;
33644;SDS011;19986;48.190;16.366;2023-04-09T00:07:55;58.20;;;54.33;;
33644;SDS011;19986;48.190;16.366;2023-04-09T00:10:21;63.55;;;59.25;;
33644;SDS011;19986;48.190;16.366;2023-04-09T00:12:47;61.65;;;57.40;;
33644;SDS011;19986;48.190;16.366;2023-04-09T00:15:13;61.22;;;57.10;;
33644;SDS011;19986;48.190;16.366;2023-04-09T00:17:39;61.45;;;57.35;;
33644;SDS011;19986;48.190;16.366;2023-04-09T00:20:05;59.78;;;55.78;;
33644;SDS011;19986;48.190;16.366;2023-04-09T00:22:32;63.20;;;59.00;;
33644;SDS011;19986;48.190;16.366;2023-04-09T00:24:58;60.60;;;56.40;;
33644;SDS011;19986;48.190;16.366;2023-04-09T00:27:24;63.83;;;59.53;;
33644;SDS011;19986;48.190;16.366;2023-04-09T00:29:52;60.05;;;56.10;;
33644;SDS011;19986;48.190;16.366;2023-04-09T00:32:19;61.20;;;57.20;;
33644;SDS011;19986;48.190;16.366;2023-04-09T00:34:45;62.47;;;58.25;;
33644;SDS011;19986;48.190;16.366;2023-04-09T00:37:11;60.13;;;56.17;;
33644;SDS011;19986;48.190;16.366;2023-04-09T00:39:36;61.88;;;57.95;;
33644;SDS011;19986;48.190;16.366;2023-04-09T00:42:02;59.40;;;55.50;;
33644;SDS011;19986;48.190;16.366;2023-04-09T00:44:28;60.70;;;56.58;;
33644;SDS011;19986;48.190;16.366;2023-04-09T00:46:54;60.72;;;56.60;;
33644;SDS011;19986;48.190;16.366;2023-04-09T00:49:20;59.63;;;55.72;;
33644;SDS011;19986;48.190;16.366;2023-04-09T00:51:46;59.40;;;55.60;;
33644;SDS011;19986;48.190;16.366;2023-04-09T00:54:13;59.78;;;56.00;;
33644;SDS011;19986;48.190;16.366;2023-04-09T00:56:40;60.38;;;56.47;;
33644;SDS011;19986;48.190;16.366;2023-04-09T00:59:07;61.35;;;57.50;;
33644;SDS011;19986;48.190;16.366;2023-04-09T01:01:32;59.17;;;55.35;;
33644;SDS011;19986;48.190;16.366;2023-04-09T01:03:58;57.53;;;53.72;;
33644;SDS011;19986;48.190;16.366;2023-04-09T01:14:31;55.33;;;51.78;;
33644;SDS011;19986;48.190;16.366;2023-04-09T01:17:08;58.08;;;54.50;;
33644;SDS011;19986;48.190;16.366;2023-04-09T01:20:09;53.80;;;50.50;;
33644;SDS011;19986;48.190;16.366;2023-04-09T01:31:04;55.20;;;51.90;;
33644;SDS011;19986;48.190;16.366;2023-04-09T01:33:35;53.47;;;50.13;;
33644;SDS011;19986;48.190;16.366;2023-04-09T01:36:03;55.42;;;52.05;;
33644;SDS011;19986;48.190;16.366;2023-04-09T01:38:30;54.88;;;51.42;;
33644;SDS011;19986;48.190;16.366;2023-04-09T01:40:58;52.25;;;49.05;;
33644;SDS011;19986;48.190;16.366;2023-04-09T01:43:25;56.40;;;52.92;;
33644;SDS011;19986;48.190;16.366;2023-04-09T01:45:53;54.35;;;51.05;;
33644;SDS011;19986;48.190;16.366;2023-04-09T01:48:19;57.00;;;53.60;;
33644;SDS011;19986;48.190;16.366;2023-04-09T01:50:45;55.72;;;52.33;;
33644;SDS011;19986;48.190;16.366;2023-04-09T01:53:12;55.70;;;52.20;;
33644;SDS011;19986;48.190;16.366;2023-04-09T01:55:38;56.60;;;53.20;;
33644;SDS011;19986;48.190;16.366;2023-04-09T01:58:04;55.30;;;51.90;;
33644;SDS011;19986;48.190;16.366;2023-04-09T02:00:34;55.53;;;52.00;;
33644;SDS011;19986;48.190;16.366;2023-04-09T02:03:24;57.40;;;54.00;;
33644;SDS011;19986;48.190;16.366;2023-04-09T02:05:55;58.17;;;54.67;;
33644;SDS011;19986;48.190;16.366;2023-04-09T02:08:27;55.45;;;52.08;;
33644;SDS011;19986;48.190;16.366;2023-04-09T02:10:55;56.55;;;53.15;;
33644;SDS011;19986;48.190;16.366;2023-04-09T02:13:23;60.03;;;56.22;;
33644;SDS011;19986;48.190;16.366;2023-04-09T02:15:51;58.42;;;54.53;;
33644;SDS011;19986;48.190;16.366;2023-04-09T02:18:25;60.70;;;56.80;;
33644;SDS011;19986;48.190;16.366;2023-04-09T02:20:53;57.05;;;53.35;;
33644;SDS011;19986;48.190;16.366;2023-04-09T02:23:20;61.30;;;57.20;;
33644;SDS011;19986;48.190;16.366;2023-04-09T02:25:47;58.95;;;55.00;;
33644;SDS011;19986;48.190;16.366;2023-04-09T02:28:14;59.65;;;55.65;;
33644;SDS011;19986;48.190;16.366;2023-04-09T02:30:39;60.53;;;56.63;;
33644;SDS011;19986;48.190;16.366;2023-04-09T02:33:05;60.30;;;56.40;;
33644;SDS011;19986;48.190;16.366;2023-04-09T02:35:33;57.58;;;53.78;;
33644;SDS011;19986;48.190;16.366;2023-04-09T02:38:00;58.58;;;54.67;;
33644;SDS011;19986;48.190;16.366;2023-04-09T02:40:26;59.08;;;55.28;;
33644;SDS011;19986;48.190;16.366;2023-04-09T02:42:52;59.97;;;56.15;;
33644;SDS011;19986;48.190;16.366;2023-04-09T02:45:18;61.17;;;57.22;;
33644;SDS011;19986;48.190;16.366;2023-04-09T02:47:44;61.42;;;57.45;;
33644;SDS011;19986;48.190;16.366;2023-04-09T02:50:10;58.85;;;55.15;;
33644;SDS011;19986;48.190;16.366;2023-04-09T02:52:36;59.58;;;55.67;;
33644;SDS011;19986;48.190;16.366;2023-04-09T02:55:02;57.95;;;54.20;;
33644;SDS011;19986;48.190;16.366;2023-04-09T02:57:29;58.10;;;54.28;;
33644;SDS011;19986;48.190;16.366;2023-04-09T02:59:58;59.45;;;55.47;;
33644;SDS011;19986;48.190;16.366;2023-04-09T03:02:24;60.42;;;56.63;;
33644;SDS011;19986;48.190;16.366;2023-04-09T03:04:51;58.95;;;55.15;;
33644;SDS011;19986;48.190;16.366;2023-04-09T03:07:17;59.47;;;55.70;;
33644;SDS011;19986;48.190;16.366;2023-04-09T03:09:43;59.95;;;56.03;;
33644;SDS011;19986;48.190;16.366;2023-04-09T03:12:08;61.15;;;57.25;;
33644;SDS011;19986;48.190;16.366;2023-04-09T03:14:34;58.95;;;55.15;;
33644;SDS011;19986;48.190;16.366;2023-04-09T03:17:00;58.00;;;54.20;;
33644;SDS011;19986;48.190;16.366;2023-04-09T03:19:27;58.20;;;54.50;;
33644;SDS011;19986;48.190;16.366;2023-04-09T03:21:55;59.50;;;55.78;;
33644;SDS011;19986;48.190;16.366;2023-04-09T03:24:21;58.10;;;54.42;;
33644;SDS011;19986;48.190;16.366;2023-04-09T03:26:47;58.05;;;54.42;;
33644;SDS011;19986;48.190;16.366;2023-04-09T03:29:14;59.85;;;56.05;;
33644;SDS011;19986;48.190;16.366;2023-04-09T03:31:41;59.45;;;55.72;;
33644;SDS011;19986;48.190;16.366;2023-04-09T03:34:07;59.65;;;55.88;;
33644;SDS011;19986;48.190;16.366;2023-04-09T03:36:32;57.25;;;53.60;;
33644;SDS011;19986;48.190;16.366;2023-04-09T03:38:58;58.22;;;54.47;;
33644;SDS011;19986;48.190;16.366;2023-04-09T03:41:25;59.75;;;55.88;;
33644;SDS011;19986;48.190;16.366;2023-04-09T03:43:52;57.25;;;53.58;;
33644;SDS011;19986;48.190;16.366;2023-04-09T03:46:17;59.42;;;55.55;;
33644;SDS011;19986;48.190;16.366;2023-04-09T03:48:43;55.25;;;51.70;;
33644;SDS011;19986;48.190;16.366;2023-04-09T03:51:10;59.92;;;55.92;;
33644;SDS011;19986;48.190;16.366;2023-04-09T03:53:37;58.45;;;54.65;;
33644;SDS011;19986;48.190;16.366;2023-04-09T03:56:03;59.70;;;55.80;;
33644;SDS011;19986;48.190;16.366;2023-04-09T03:58:29;58.08;;;54.08;;
33644;SDS011;19986;48.190;16.366;2023-04-09T04:00:55;58.00;;;54.25;;
33644;SDS011;19986;48.190;16.366;2023-04-09T04:03:21;60.25;;;56.15;;
33644;SDS011;19986;48.190;16.366;2023-04-09T04:05:47;58.17;;;54.47;;
33644;SDS011;19986;48.190;16.366;2023-04-09T04:08:13;60.30;;;56.40;;
33644;SDS011;19986;48.190;16.366;2023-04-09T04:10:38;58.25;;;54.45;;
33644;SDS011;19986;48.190;16.366;2023-04-09T04:13:07;60.00;;;56.08;;
33644;SDS011;19986;48.190;16.366;2023-04-09T04:15:42;59.05;;;55.15;;
33644;SDS011;19986;48.190;16.366;2023-04-09T04:18:09;60.10;;;56.20;;
33644;SDS011;19986;48.190;16.366;2023-04-09T04:20:35;58.38;;;54.53;;
33644;SDS011;19986;48.190;16.366;2023-04-09T04:23:02;57.58;;;53.83;;
33644;SDS011;19986;48.190;16.366;2023-04-09T04:25:29;57.47;;;53.63;;
33644;SDS011;19986;48.190;16.366;2023-04-09T04:27:55;60.33;;;56.33;;
33644;SDS011;19986;48.190;16.366;2023-04-09T04:30:21;60.00;;;56.00;;
33644;SDS011;19986;48.190;16.366;2023-04-09T04:32:47;61.13;;;57.13;;
33644;SDS011;19986;48.190;16.366;2023-04-09T04:35:14;60.13;;;56.25;;
33644;SDS011;19986;48.190;16.366;2023-04-09T04:37:39;58.67;;;54.90;;
33644;SDS011;19986;48.190;16.366;2023-04-09T04:40:08;59.28;;;55.40;;
33644;SDS011;19986;48.190;16.366;2023-04-09T04:42:34;59.83;;;56.03;;
33644;SDS011;19986;48.190;16.366;2023-04-09T04:45:00;59.00;;;55.10;;
33644;SDS011;19986;48.190;16.366;2023-04-09T04:47:26;56.85;;;53.05;;
33644;SDS011;19986;48.190;16.366;2023-04-09T04:49:52;59.08;;;55.17;;
33644;SDS011;19986;48.190;16.366;2023-04-09T04:52:18;59.42;;;55.53;;
33644;SDS011;19986;48.190;16.366;2023-04-09T04:54:43;60.47;;;56.47;;
33644;SDS011;19986;48.190;16.366;2023-04-09T04:57:09;57.88;;;53.97;;
33644;SDS011;19986;48.190;16.366;2023-04-09T04:59:36;59.80;;;55.85;;
33644;SDS011;19986;48.190;16.366;2023-04-09T05:02:04;58.35;;;54.53;;
33644;SDS011;19986;48.190;16.366;2023-04-09T05:04:30;60.60;;;56.72;;
33644;SDS011;19986;48.190;16.366;2023-04-09T05:06:56;60.47;;;56.47;;
33644;SDS011;19986;48.190;16.366;2023-04-09T05:09:22;60.05;;;56.25;;
33644;SDS011;19986;48.190;16.366;2023-04-09T05:11:47;61.33;;;57.35;;
33644;SDS011;19986;48.190;16.366;2023-04-09T05:14:13;59.58;;;55.67;;
33644;SDS011;19986;48.190;16.366;2023-04-09T05:16:39;61.78;;;57.60;;
33644;SDS011;19986;48.190;16.366;2023-04-09T05:19:05;61.58;;;57.50;;
33644;SDS011;19986;48.190;16.366;2023-04-09T05:21:31;58.90;;;54.90;;
33644;SDS011;19986;48.190;16.366;2023-04-09T05:23:57;60.17;;;56.28;;
33644;SDS011;19986;48.190;16.366;2023-04-09T05:26:23;58.50;;;54.70;;
33644;SDS011;19986;48.190;16.366;2023-04-09T05:28:49;61.13;;;57.17;;
33644;SDS011;19986;48.190;16.366;2023-04-09T05:31:15;60.03;;;56.22;;
33644;SDS011;19986;48.190;16.366;2023-04-09T05:33:41;61.08;;;57.05;;
33644;SDS011;19986;48.190;16.366;2023-04-09T05:36:07;61.22;;;57.38;;
33644;SDS011;19986;48.190;16.366;2023-04-09T05:38:33;61.33;;;57.10;;
33644;SDS011;19986;48.190;16.366;2023-04-09T05:40:59;61.30;;;57.30;;
33644;SDS011;19986;48.190;16.366;2023-04-09T05:43:25;62.28;;;58.08;;
33644;SDS011;19986;48.190;16.366;2023-04-09T05:45:51;62.13;;;57.83;;
33644;SDS011;19986;48.190;16.366;2023-04-09T05:48:17;62.33;;;58.13;;
33644;SDS011;19986;48.190;16.366;2023-04-09T05:50:50;63.58;;;58.92;;
33644;SDS011;19986;48.190;16.366;2023-04-09T05:53:19;62.58;;;58.33;;
33644;SDS011;19986;48.190;16.366;2023-04-09T05:55:45;63.03;;;58.72;;
33644;SDS011;19986;48.190;16.366;2023-04-09T05:58:13;61.00;;;57.00;;
33644;SDS011;19986;48.190;16.366;2023-04-09T06:00:40;63.25;;;59.08;;
33644;SDS011;19986;48.190;16.366;2023-04-09T06:03:12;62.08;;;57.85;;
33644;SDS011;19986;48.190;16.366;2023-04-09T06:05:38;61.40;;;56.85;;
33644;SDS011;19986;48.190;16.366;2023-04-09T06:08:07;64.35;;;60.05;;
33644;SDS011;19986;48.190;16.366;2023-04-09T06:10:33;63.33;;;58.72;;
33644;SDS011;19986;48.190;16.366;2023-04-09T06:12:59;62.65;;;58.00;;
33644;SDS011;19986;48.190;16.366;2023-04-09T06:15:26;63.53;;;59.10;;
33644;SDS011;19986;48.190;16.366;2023-04-09T06:17:52;62.70;;;58.47;;
33644;SDS011;19986;48.190;16.366;2023-04-09T06:20:18;62.40;;;58.13;;
33644;SDS011;19986;48.190;16.366;2023-04-09T06:22:44;64.78;;;60.28;;
33644;SDS011;19986;48.190;16.366;2023-04-09T06:25:10;64.40;;;59.80;;
33644;SDS011;19986;48.190;16.366;2023-04-09T06:27:35;62.95;;;58.78;;
33644;SDS011;19986;48.190;16.366;2023-04-09T06:30:01;62.40;;;58.22;;
33644;SDS011;19986;48.190;16.366;2023-04-09T06:32:27;59.15;;;55.13;;
33644;SDS011;19986;48.190;16.366;2023-04-09T06:34:53;62.13;;;57.97;;
33644;SDS011;19986;48.190;16.366;2023-04-09T06:37:19;60.80;;;56.55;;
33644;SDS011;19986;48.190;16.366;2023-04-09T06:39:45;63.47;;;59.15;;
33644;SDS011;19986;48.190;16.366;2023-04-09T06:42:11;63.38;;;59.03;;
33644;SDS011;19986;48.190;16.366;2023-04-09T06:44:37;61.95;;;57.45;;
33644;SDS011;19986;48.190;16.366;2023-04-09T06:47:02;66.75;;;61.75;;
33644;SDS011;19986;48.190;16.366;2023-04-09T06:49:28;65.90;;;60.85;;
33644;SDS011;19986;48.190;16.366;2023-04-09T06:51:54;69.88;;;64.47;;
33644;SDS011;19986;48.190;16.366;2023-04-09T06:54:20;69.47;;;64.18;;
33644;SDS011;19986;48.190;16.366;2023-04-09T06:56:46;68.20;;;63.00;;
33644;SDS011;19986;48.190;16.366;2023-04-09T06:59:11;67.97;;;62.70;;
33644;SDS011;19986;48.190;16.366;2023-04-09T07:01:37;68.07;;;62.95;;
33644;SDS011;19986;48.190;16.366;2023-04-09T07:04:04;65.45;;;60.55;;
33644;SDS011;19986;48.190;16.366;2023-04-09T07:06:30;68.80;;;63.72;;
33644;SDS011;19986;48.190;16.366;2023-04-09T07:08:56;66.90;;;61.80;;
33644;SDS011;19986;48.190;16.366;2023-04-09T07:11:22;63.80;;;58.80;;
33644;SDS011;19986;48.190;16.366;2023-04-09T07:13:48;65.63;;;60.72;;
33644;SDS011;19986;48.190;16.366;2023-04-09T07:16:17;67.95;;;62.78;;
33644;SDS011;19986;48.190;16.366;2023-04-09T07:18:45;68.25;;;63.25;;
33644;SDS011;19986;48.190;16.366;2023-04-09T07:21:11;67.97;;;62.88;;
33644;SDS011;19986;48.190;16.366;2023-04-09T07:23:37;68.65;;;63.47;;
33644;SDS011;19986;48.190;16.366;2023-04-09T07:26:03;65.45;;;60.47;;
33644;SDS011;19986;48.190;16.366;2023-04-09T07:28:30;66.30;;;61.25;;
33644;SDS011;19986;48.190;16.366;2023-04-09T07:30:56;66.32;;;61.33;;
33644;SDS011;19986;48.190;16.366;2023-04-09T07:33:22;64.90;;;59.88;;
33644;SDS011;19986;48.190;16.366;2023-04-09T07:35:48;65.93;;;60.92;;
33644;SDS011;19986;48.190;16.366;2023-04-09T07:38:14;70.97;;;65.35;;
33644;SDS011;19986;48.190;16.366;2023-04-09T07:40:40;70.97;;;65.38;;
33644;SDS011;19986;48.190;16.366;2023-04-09T07:43:06;68.40;;;63.22;;
33644;SDS011;19986;48.190;16.366;2023-04-09T07:45:32;66.97;;;61.75;;
33644;SDS011;19986;48.190;16.366;2023-04-09T07:47:57;66.88;;;61.17;;
33644;SDS011;19986;48.190;16.366;2023-04-09T07:50:23;68.15;;;62.85;;
33644;SDS011;19986;48.190;16.366;2023-04-09T07:52:50;66.38;;;61.38;;
33644;SDS011;19986;48.190;16.366;2023-04-09T07:55:16;67.82;;;62.63;;
33644;SDS011;19986;48.190;16.366;2023-04-09T07:57:42;67.10;;;62.03;;
33644;SDS011;19986;48.190;16.366;2023-04-09T08:00:09;68.78;;;63.47;;
33644;SDS011;19986;48.190;16.366;2023-04-09T08:02:35;67.15;;;61.95;;
33644;SDS011;19986;48.190;16.366;2023-04-09T08:05:02;66.80;;;61.60;;
33644;SDS011;19986;48.190;16.366;2023-04-09T08:07:28;68.00;;;62.70;;
33644;SDS011;19986;48.190;16.366;2023-04-09T08:09:53;70.35;;;64.88;;
33644;SDS011;19986;48.190;16.366;2023-04-09T08:12:19;70.90;;;65.20;;
33644;SDS011;19986;48.190;16.366;2023-04-09T08:14:45;71.82;;;66.10;;
33644;SDS011;19986;48.190;16.366;2023-04-09T08:17:11;69.82;;;64.22;;
33644;SDS011;19986;48.190;16.366;2023-04-09T08:19:37;74.40;;;68.43;;
33644;SDS011;19986;48.190;16.366;2023-04-09T08:22:03;72.18;;;66.45;;
33644;SDS011;19986;48.190;16.366;2023-04-09T08:24:29;73.43;;;67.47;;
33644;SDS011;19986;48.190;16.366;2023-04-09T08:26:58;74.40;;;68.55;;
33644;SDS011;19986;48.190;16.366;2023-04-09T08:29:26;72.78;;;66.97;;
33644;SDS011;19986;48.190;16.366;2023-04-09T08:31:52;73.43;;;67.65;;
33644;SDS011;19986;48.190;16.366;2023-04-09T08:34:18;73.68;;;67.93;;
33644;SDS011;19986;48.190;16.366;2023-04-09T08:36:46;69.05;;;63.55;;
33644;SDS011;19986;48.190;16.366;2023-04-09T08:39:14;70.32;;;64.72;;
33644;SDS011;19986;48.190;16.366;2023-04-09T08:41:43;68.55;;;63.08;;
33644;SDS011;19986;48.190;16.366;2023-04-09T08:44:10;69.72;;;64.25;;
33644;SDS011;19986;48.190;16.366;2023-04-09T08:46:42;68.10;;;62.75;;
33644;SDS011;19986;48.190;16.366;2023-04-09T08:49:08;68.18;;;62.83;;
33644;SDS011;19986;48.190;16.366;2023-04-09T08:51:35;62.50;;;57.70;;
33644;SDS011;19986;48.190;16.366;2023-04-09T08:54:01;63.13;;;58.25;;
33644;SDS011;19986;48.190;16.366;2023-04-09T08:56:27;61.42;;;57.05;;
33644;SDS011;19986;48.190;16.366;2023-04-09T08:58:54;65.80;;;60.88;;
33644;SDS011;19986;48.190;16.366;2023-04-09T09:01:27;62.90;;;58.25;;
33644;SDS011;19986;48.190;16.366;2023-04-09T09:03:58;64.20;;;59.50;;
33644;SDS011;19986;48.190;16.366;2023-04-09T09:06:30;63.80;;;59.30;;
33644;SDS011;19986;48.190;16.366;2023-04-09T09:09:00;61.25;;;56.80;;
33644;SDS011;19986;48.190;16.366;2023-04-09T09:11:32;63.30;;;58.72;;
33644;SDS011;19986;48.190;16.366;2023-04-09T09:14:03;59.22;;;54.92;;
33644;SDS011;19986;48.190;16.366;2023-04-09T09:16:31;58.90;;;54.67;;
33644;SDS011;19986;48.190;16.366;2023-04-09T09:19:04;57.13;;;52.95;;
33644;SDS011;19986;48.190;16.366;2023-04-09T09:21:30;57.55;;;53.53;;
33644;SDS011;19986;48.190;16.366;2023-04-09T09:23:57;58.63;;;54.67;;
33644;SDS011;19986;48.190;16.366;2023-04-09T09:26:28;56.72;;;52.88;;
33644;SDS011;19986;48.190;16.366;2023-04-09T09:28:56;58.35;;;54.55;;
33644;SDS011;19986;48.190;16.366;2023-04-09T09:31:23;55.58;;;51.70;;
33644;SDS011;19986;48.190;16.366;2023-04-09T09:33:49;51.58;;;48.25;;
33644;SDS011;19986;48.190;16.366;2023-04-09T09:36:18;55.58;;;51.90;;
33644;SDS011;19986;48.190;16.366;2023-04-09T09:38:58;54.90;;;51.30;;
33644;SDS011;19986;48.190;16.366;2023-04-09T09:41:28;54.85;;;51.20;;
33644;SDS011;19986;48.190;16.366;2023-04-09T09:43:54;55.92;;;52.22;;
33644;SDS011;19986;48.190;16.366;2023-04-09T09:46:21;58.35;;;54.45;;
33644;SDS011;19986;48.190;16.366;2023-04-09T09:48:48;58.40;;;54.42;;
33644;SDS011;19986;48.190;16.366;2023-04-09T09:51:15;57.72;;;53.70;;
33644;SDS011;19986;48.190;16.366;2023-04-09T09:53:42;55.70;;;51.95;;
33644;SDS011;19986;48.190;16.366;2023-04-09T09:56:17;56.88;;;53.05;;
33644;SDS011;19986;48.190;16.366;2023-04-09T09:58:47;59.13;;;54.92;;
33644;SDS011;19986;48.190;16.366;2023-04-09T10:01:18;55.00;;;51.35;;
33644;SDS011;19986;48.190;16.366;2023-04-09T10:03:48;55.60;;;52.00;;
33644;SDS011;19986;48.190;16.366;2023-04-09T10:06:16;55.40;;;51.90;;
33644;SDS011;19986;48.190;16.366;2023-04-09T10:08:42;54.25;;;50.72;;
33644;SDS011;19986;48.190;16.366;2023-04-09T10:11:10;53.03;;;49.35;;
33644;SDS011;19986;48.190;16.366;2023-04-09T10:13:45;55.13;;;51.30;;
33644;SDS011;19986;48.190;16.366;2023-04-09T10:16:16;58.17;;;54.25;;
33644;SDS011;19986;48.190;16.366;2023-04-09T10:18:43;56.90;;;52.90;;
33644;SDS011;19986;48.190;16.366;2023-04-09T10:23:51;56.78;;;52.90;;
33644;SDS011;19986;48.190;16.366;2023-04-09T10:26:18;56.60;;;52.80;;
33644;SDS011;19986;48.190;16.366;2023-04-09T10:28:44;56.03;;;52.20;;
33644;SDS011;19986;48.190;16.366;2023-04-09T10:31:10;59.13;;;54.95;;
33644;SDS011;19986;48.190;16.366;2023-04-09T10:33:36;55.45;;;51.65;;
33644;SDS011;19986;48.190;16.366;2023-04-09T10:36:03;55.67;;;51.88;;
33644;SDS011;19986;48.190;16.366;2023-04-09T10:38:40;57.28;;;53.40;;
33644;SDS011;19986;48.190;16.366;2023-04-09T10:43:35;56.88;;;52.88;;
33644;SDS011;19986;48.190;16.366;2023-04-09T10:46:03;56.83;;;52.92;;
33644;SDS011;19986;48.190;16.366;2023-04-09T10:48:33;58.40;;;54.17;;
33644;SDS011;19986;48.190;16.366;2023-04-09T10:51:01;55.05;;;51.28;;
33644;SDS011;19986;48.190;16.366;2023-04-09T10:53:31;53.58;;;49.88;;
33644;SDS011;19986;48.190;16.366;2023-04-09T10:55:57;55.83;;;51.80;;
33644;SDS011;19986;48.190;16.366;2023-04-09T10:58:23;57.67;;;53.63;;
33644;SDS011;19986;48.190;16.366;2023-04-09T11:00:50;53.22;;;49.67;;
33644;SDS011;19986;48.190;16.366;2023-04-09T11:08:30;55.05;;;51.35;;
33644;SDS011;19986;48.190;16.366;2023-04-09T11:10:57;55.58;;;51.65;;
33644;SDS011;19986;48.190;16.366;2023-04-09T11:13:25;58.00;;;54.00;;
33644;SDS011;19986;48.190;16.366;2023-04-09T11:15:53;56.20;;;51.47;;
33644;SDS011;19986;48.190;16.366;2023-04-09T11:18:24;56.17;;;52.15;;
33644;SDS011;19986;48.190;16.366;2023-04-09T11:20:55;53.88;;;50.17;;
33644;SDS011;19986;48.190;16.366;2023-04-09T11:23:25;56.50;;;52.50;;
33644;SDS011;19986;48.190;16.366;2023-04-09T11:25:51;55.08;;;51.28;;
33644;SDS011;19986;48.190;16.366;2023-04-09T11:28:18;58.83;;;54.45;;
33644;SDS011;19986;48.190;16.366;2023-04-09T11:30:45;58.92;;;54.65;;
33644;SDS011;19986;48.190;16.366;2023-04-09T11:33:13;57.33;;;53.33;;
33644;SDS011;19986;48.190;16.366;2023-04-09T11:35:39;61.22;;;56.92;;
33644;SDS011;19986;48.190;16.366;2023-04-09T11:38:08;49.67;;;46.78;;
33644;SDS011;19986;48.190;16.366;2023-04-09T11:40:40;55.30;;;51.60;;
33644;SDS011;19986;48.190;16.366;2023-04-09T11:43:12;55.92;;;52.22;;
33644;SDS011;19986;48.190;16.366;2023-04-09T11:45:39;63.80;;;59.10;;
33644;SDS011;19986;48.190;16.366;2023-04-09T11:48:05;67.13;;;61.92;;
33644;SDS011;19986;48.190;16.366;2023-04-09T11:50:31;61.03;;;56.63;;
33644;SDS011;19986;48.190;16.366;2023-04-09T11:52:57;59.88;;;55.55;;
33644;SDS011;19986;48.190;16.366;2023-04-09T11:55:27;63.17;;;58.55;;
33644;SDS011;19986;48.190;16.366;2023-04-09T11:57:57;56.72;;;52.75;;
33644;SDS011;19986;48.190;16.366;2023-04-09T12:00:27;55.47;;;51.75;;
33644;SDS011;19986;48.190;16.366;2023-04-09T12:03:00;56.47;;;52.47;;
33644;SDS011;19986;48.190;16.366;2023-04-09T12:05:28;56.38;;;52.17;;
33644;SDS011;19986;48.190;16.366;2023-04-09T12:07:57;56.15;;;52.22;;
33644;SDS011;19986;48.190;16.366;2023-04-09T12:10:26;54.35;;;50.60;;
33644;SDS011;19986;48.190;16.366;2023-04-09T12:12:53;57.83;;;53.60;;
33644;SDS011;19986;48.190;16.366;2023-04-09T12:15:20;57.45;;;53.40;;
33644;SDS011;19986;48.190;16.366;2023-04-09T12:17:54;54.50;;;50.83;;
33644;SDS011;19986;48.190;16.366;2023-04-09T12:20:25;56.97;;;53.08;;
33644;SDS011;19986;48.190;16.366;2023-04-09T12:22:56;56.25;;;52.17;;
33644;SDS011;19986;48.190;16.366;2023-04-09T12:25:24;55.25;;;51.63;;
33644;SDS011;19986;48.190;16.366;2023-04-09T12:27:50;54.63;;;50.92;;
33644;SDS011;19986;48.190;16.366;2023-04-09T12:30:16;55.83;;;52.00;;
33644;SDS011;19986;48.190;16.366;2023-04-09T12:32:42;59.30;;;55.22;;
33644;SDS011;19986;48.190;16.366;2023-04-09T12:35:10;58.55;;;54.38;;
33644;SDS011;19986;48.190;16.366;2023-04-09T12:37:39;57.38;;;53.40;;
33644;SDS011;19986;48.190;16.366;2023-04-09T12:40:05;60.17;;;56.05;;
33644;SDS011;19986;48.190;16.366;2023-04-09T12:42:31;55.53;;;51.63;;
33644;SDS011;19986;48.190;16.366;2023-04-09T12:44:57;58.05;;;53.95;;
33644;SDS011;19986;48.190;16.366;2023-04-09T12:47:23;59.17;;;54.88;;
33644;SDS011;19986;48.190;16.366;2023-04-09T12:49:49;58.83;;;54.58;;
33644;SDS011;19986;48.190;16.366;2023-04-09T12:52:15;58.80;;;54.60;;
33644;SDS011;19986;48.190;16.366;2023-04-09T12:54:42;60.05;;;55.88;;
33644;SDS011;19986;48.190;16.366;2023-04-09T12:57:09;58.92;;;54.75;;
33644;SDS011;19986;48.190;16.366;2023-04-09T12:59:35;57.60;;;53.38;;
33644;SDS011;19986;48.190;16.366;2023-04-09T13:02:01;58.25;;;54.10;;
33644;SDS011;19986;48.190;16.366;2023-04-09T13:04:27;58.67;;;54.33;;
33644;SDS011;19986;48.190;16.366;2023-04-09T13:06:54;57.55;;;53.25;;
33644;SDS011;19986;48.190;16.366;2023-04-09T13:09:20;50.85;;;47.70;;
33644;SDS011;19986;48.190;16.366;2023-04-09T13:11:46;53.50;;;50.00;;
33644;SDS011;19986;48.190;16.366;2023-04-09T13:14:12;50.85;;;47.67;;
33644;SDS011;19986;48.190;16.366;2023-04-09T13:16:39;50.17;;;47.08;;
33644;SDS011;19986;48.190;16.366;2023-04-09T13:19:05;52.58;;;49.25;;
33644;SDS011;19986;48.190;16.366;2023-04-09T13:21:32;52.60;;;49.30;;
33644;SDS011;19986;48.190;16.366;2023-04-09T13:23:58;54.80;;;51.30;;
33644;SDS011;19986;48.190;16.366;2023-04-09T13:26:24;55.97;;;52.17;;
33644;SDS011;19986;48.190;16.366;2023-04-09T13:28:50;56.30;;;52.55;;
33644;SDS011;19986;48.190;16.366;2023-04-09T13:31:16;55.05;;;51.10;;
33644;SDS011;19986;48.190;16.366;2023-04-09T13:33:42;55.28;;;51.67;;
33644;SDS011;19986;48.190;16.366;2023-04-09T13:36:08;56.13;;;52.33;;
33644;SDS011;19986;48.190;16.366;2023-04-09T13:38:34;56.30;;;52.50;;
33644;SDS011;19986;48.190;16.366;2023-04-09T13:40:59;56.20;;;52.30;;
33644;SDS011;19986;48.190;16.366;2023-04-09T13:43:25;56.35;;;52.45;;
33644;SDS011;19986;48.190;16.366;2023-04-09T13:45:53;57.33;;;52.97;;
33644;SDS011;19986;48.190;16.366;2023-04-09T13:48:20;56.78;;;52.83;;
33644;SDS011;19986;48.190;16.366;2023-04-09T13:50:46;57.42;;;53.42;;
33644;SDS011;19986;48.190;16.366;2023-04-09T13:53:12;57.50;;;53.50;;
33644;SDS011;19986;48.190;16.366;2023-04-09T13:55:38;59.30;;;54.80;;
33644;SDS011;19986;48.190;16.366;2023-04-09T13:58:04;57.38;;;53.38;;
33644;SDS011;19986;48.190;16.366;2023-04-09T14:00:30;58.67;;;54.65;;
33644;SDS011;19986;48.190;16.366;2023-04-09T14:02:57;58.45;;;54.38;;
33644;SDS011;19986;48.190;16.366;2023-04-09T14:05:23;59.17;;;54.95;;
33644;SDS011;19986;48.190;16.366;2023-04-09T14:07:48;56.50;;;52.65;;
33644;SDS011;19986;48.190;16.366;2023-04-09T14:10:15;56.10;;;51.83;;
33644;SDS011;19986;48.190;16.366;2023-04-09T14:12:41;57.25;;;53.10;;
33644;SDS011;19986;48.190;16.366;2023-04-09T14:15:07;58.08;;;54.08;;
33644;SDS011;19986;48.190;16.366;2023-04-09T14:17:34;56.20;;;52.40;;
33644;SDS011;19986;48.190;16.366;2023-04-09T14:20:00;57.05;;;53.10;;
33644;SDS011;19986;48.190;16.366;2023-04-09T14:22:28;57.55;;;53.58;;
33644;SDS011;19986;48.190;16.366;2023-04-09T14:24:54;57.42;;;53.10;;
33644;SDS011;19986;48.190;16.366;2023-04-09T14:27:20;56.55;;;52.70;;
33644;SDS011;19986;48.190;16.366;2023-04-09T14:29:46;58.78;;;54.53;;
33644;SDS011;19986;48.190;16.366;2023-04-09T14:32:12;54.67;;;50.78;;
33644;SDS011;19986;48.190;16.366;2023-04-09T14:34:38;57.85;;;53.65;;